Time;durP1;ratioP1;P1;durP2;ratioP2;P2;SDS_P1;SDS_P2;PMS_P1;PMS_P2;Temp;Humidity;BMP_temperature;BMP_pressure;BME280_temperature;BME280_humidity;BME280_pressure;Samples;Min_cycle;Max_cycle;Signal;HPM_P1;HPM_P2
2023/04/20 00:00:26;;;;;;;23.00;3.50;;;;;;;9.64;100.00;99391.15;110294;1271;22204;-68
2023/04/20 00:02:55;;;;;;;24.60;3.80;;;;;;;9.66;100.00;99385.71;110284;1270;23352;-67
2023/04/20 00:05:23;;;;;;;20.90;4.40;;;;;;;9.66;100.00;99385.33;110323;1268;22404;-68
2023/04/20 00:07:53;;;;;;;27.80;4.70;;;;;;;9.67;100.00;99382.51;110321;1268;22529;-68
2023/04/20 00:10:21;;;;;;;29.20;4.80;;;;;;;9.66;100.00;99381.91;110321;1273;23046;-69
2023/04/20 00:12:49;;;;;;;22.50;3.50;;;;;;;9.66;100.00;99379.79;110315;1269;22173;-68
2023/04/20 00:15:18;;;;;;;30.40;4.50;;;;;;;9.65;100.00;99380.48;110311;1276;22383;-68
2023/04/20 00:17:47;;;;;;;27.20;4.30;;;;;;;9.66;100.00;99379.46;110307;1269;23385;-68
2023/04/20 00:20:15;;;;;;;26.30;4.00;;;;;;;9.66;100.00;99382.52;110296;1267;22543;-68
2023/04/20 00:22:44;;;;;;;27.80;3.30;;;;;;;9.66;100.00;99378.70;110326;1268;22211;-68
2023/04/20 00:25:12;;;;;;;12.70;3.10;;;;;;;9.66;100.00;99377.18;110319;1271;22533;-68
2023/04/20 00:27:40;;;;;;;23.30;4.10;;;;;;;9.66;100.00;99380.00;110300;1269;22267;-68
2023/04/20 00:30:09;;;;;;;32.60;3.50;;;;;;;9.64;100.00;99379.08;110169;1271;22310;-67
2023/04/20 00:32:38;;;;;;;15.40;2.70;;;;;;;9.63;100.00;99376.64;110254;1276;23037;-68
2023/04/20 00:35:07;;;;;;;24.10;3.40;;;;;;;9.62;100.00;99370.94;110245;1268;22337;-68
2023/04/20 00:37:36;;;;;;;30.90;4.20;;;;;;;9.62;100.00;99369.14;110293;1275;22274;-68
2023/04/20 00:40:06;;;;;;;26.00;3.60;;;;;;;9.62;100.00;99372.19;110276;1271;22394;-68
2023/04/20 00:42:34;;;;;;;20.90;3.50;;;;;;;9.63;100.00;99364.63;110264;1270;22227;-68
2023/04/20 00:45:03;;;;;;;26.20;3.50;;;;;;;9.66;100.00;99364.08;110289;1270;22589;-68
2023/04/20 00:47:31;;;;;;;25.30;3.80;;;;;;;9.71;100.00;99362.54;110274;1268;22356;-68
2023/04/20 00:50:02;;;;;;;32.40;4.10;;;;;;;9.70;100.00;99357.98;110220;1268;22338;-68
2023/04/20 00:52:31;;;;;;;24.70;3.40;;;;;;;9.69;100.00;99358.53;110251;1270;22269;-68
2023/04/20 00:54:59;;;;;;;19.60;3.30;;;;;;;9.69;100.00;99350.86;110178;1271;22469;-68
2023/04/20 00:57:28;;;;;;;25.00;3.60;;;;;;;9.68;100.00;99349.13;110278;1275;22419;-68
2023/04/20 00:59:56;;;;;;;24.70;3.30;;;;;;;9.67;100.00;99351.96;110281;1274;22663;-68
2023/04/20 01:02:24;;;;;;;24.30;3.80;;;;;;;9.65;100.00;99346.90;110280;1269;22841;-68
2023/04/20 01:04:52;;;;;;;22.00;3.00;;;;;;;9.63;100.00;99348.81;110292;1269;22986;-68
2023/04/20 01:07:21;;;;;;;28.10;4.20;;;;;;;9.65;100.00;99344.61;110239;1272;23079;-68
2023/04/20 01:09:50;;;;;;;26.30;3.40;;;;;;;9.65;100.00;99342.06;110293;1271;22456;-68
2023/04/20 01:12:18;;;;;;;27.60;3.90;;;;;;;9.62;100.00;99343.86;110330;1268;22295;-67
2023/04/20 01:14:46;;;;;;;21.30;3.50;;;;;;;9.61;100.00;99343.11;110299;1271;22412;-68
2023/04/20 01:17:14;;;;;;;20.40;3.90;;;;;;;9.58;100.00;99339.46;110316;1270;22417;-68
2023/04/20 01:19:45;;;;;;;21.80;4.20;;;;;;;9.56;100.00;99337.90;110215;1270;22382;-69
2023/04/20 01:22:17;;;;;;;32.40;4.20;;;;;;;9.55;100.00;99336.00;110260;1268;22763;-68
2023/04/20 01:24:46;;;;;;;26.90;4.40;;;;;;;9.59;100.00;99335.77;110231;1271;22270;-69
2023/04/20 01:27:15;;;;;;;20.80;5.80;;;;;;;9.58;100.00;99331.21;110286;1275;24930;-68
2023/04/20 01:29:44;;;;;;;27.10;4.50;;;;;;;9.55;100.00;99340.13;110307;1274;23473;-67
2023/04/20 01:32:12;;;;;;;24.10;5.30;;;;;;;9.53;100.00;99336.65;110296;1275;23006;-67
2023/04/20 01:34:40;;;;;;;31.80;5.40;;;;;;;9.51;100.00;99330.35;110236;1276;22240;-68
2023/04/20 01:37:08;;;;;;;27.50;4.90;;;;;;;9.52;100.00;99332.95;110284;1269;22429;-67
2023/04/20 01:39:39;;;;;;;20.90;4.80;;;;;;;9.59;100.00;99330.61;110287;1269;22937;-68
2023/04/20 01:42:07;;;;;;;24.30;5.30;;;;;;;9.59;100.00;99329.27;110201;1270;23671;-68
2023/04/20 01:44:36;;;;;;;29.60;4.90;;;;;;;9.58;100.00;99327.45;110295;1269;23519;-68
2023/04/20 01:47:04;;;;;;;29.50;4.20;;;;;;;9.57;100.00;99324.45;110179;1269;23156;-67
2023/04/20 01:49:33;;;;;;;30.10;4.20;;;;;;;9.58;100.00;99325.23;110334;1275;22239;-68
2023/04/20 01:52:01;;;;;;;30.50;4.00;;;;;;;9.58;100.00;99324.63;110281;1271;23171;-68
2023/04/20 01:54:29;;;;;;;18.20;4.00;;;;;;;9.56;100.00;99325.13;110215;1268;22372;-68
2023/04/20 01:56:58;;;;;;;20.60;4.20;;;;;;;9.61;100.00;99322.77;110144;1270;22259;-68
2023/04/20 01:59:26;;;;;;;18.80;3.90;;;;;;;9.61;100.00;99321.58;110240;1270;23247;-68
2023/04/20 02:01:54;;;;;;;21.60;4.00;;;;;;;9.59;100.00;99320.34;110262;1268;22313;-68
2023/04/20 02:04:23;;;;;;;24.00;3.70;;;;;;;9.58;100.00;99319.63;108437;1272;22553;-67
2023/04/20 02:06:51;;;;;;;27.90;5.10;;;;;;;9.58;100.00;99314.69;108114;1272;25329;-67
2023/04/20 02:09:19;;;;;;;24.80;3.60;;;;;;;9.58;100.00;99313.87;107094;1268;25354;-68
2023/04/20 02:11:49;;;;;;;25.30;5.00;;;;;;;9.62;100.00;99309.04;106883;1269;22894;-67
2023/04/20 02:14:18;;;;;;;25.80;3.80;;;;;;;9.60;100.00;99309.68;110223;1269;23048;-68
2023/04/20 02:16:47;;;;;;;25.20;3.40;;;;;;;9.60;100.00;99309.41;110271;1276;22180;-68
2023/04/20 02:19:15;;;;;;;21.00;3.30;;;;;;;9.60;100.00;99306.65;110314;1268;23349;-68
2023/04/20 02:21:44;;;;;;;21.60;3.60;;;;;;;9.58;100.00;99310.45;110316;1274;22198;-68
2023/04/20 02:24:12;;;;;;;22.80;3.50;;;;;;;9.57;100.00;99307.18;110253;1269;23007;-67
2023/04/20 02:26:40;;;;;;;20.10;3.30;;;;;;;9.58;100.00;99308.21;110203;1268;22179;-68
2023/04/20 02:29:08;;;;;;;26.50;4.20;;;;;;;9.63;100.00;99305.23;110305;1271;22224;-68
2023/04/20 02:31:36;;;;;;;17.40;3.20;;;;;;;9.62;100.00;99305.33;110249;1275;22196;-68
2023/04/20 02:34:08;;;;;;;24.10;3.10;;;;;;;9.59;100.00;99302.03;110281;1275;22449;-68
2023/04/20 02:36:36;;;;;;;26.70;4.00;;;;;;;9.57;100.00;99301.25;110311;1269;22917;-68
2023/04/20 02:39:04;;;;;;;24.80;3.80;;;;;;;9.56;100.00;99296.88;110279;1268;22421;-68
2023/04/20 02:41:34;;;;;;;22.20;3.80;;;;;;;9.56;100.00;99297.30;110308;1268;22650;-68
2023/04/20 02:44:03;;;;;;;25.80;3.60;;;;;;;9.60;100.00;99298.32;110184;1269;22441;-69
2023/04/20 02:46:33;;;;;;;27.60;3.50;;;;;;;9.62;100.00;99295.11;110157;1271;22894;-70
2023/04/20 02:49:02;;;;;;;26.60;3.50;;;;;;;9.62;100.00;99295.23;110241;1275;22356;-68
2023/04/20 02:51:31;;;;;;;24.70;3.90;;;;;;;9.60;100.00;99293.92;110203;1268;22372;-68
2023/04/20 02:53:59;;;;;;;19.90;2.90;;;;;;;9.58;100.00;99302.02;110215;1267;22317;-68
2023/04/20 02:56:29;;;;;;;29.20;3.50;;;;;;;9.56;100.00;99297.23;110177;1269;22201;-68
2023/04/20 02:59:02;;;;;;;28.80;3.60;;;;;;;9.56;100.00;99298.16;110233;1269;22212;-68
2023/04/20 03:01:42;;;;;;;23.90;3.80;;;;;;;9.62;100.00;99295.70;110204;1269;22276;-69
2023/04/20 03:04:20;;;;;;;19.90;3.40;;;;;;;9.63;100.00;99296.36;110183;1270;22229;-68
2023/04/20 03:07:00;;;;;;;16.10;3.70;;;;;;;9.61;100.00;99294.02;110255;1268;22344;-68
2023/04/20 03:09:30;;;;;;;21.40;3.90;;;;;;;9.60;100.00;99294.84;110252;1272;23103;-68
2023/04/20 03:12:17;;;;;;;22.40;3.60;;;;;;;9.59;100.00;99291.54;110259;1275;23111;-68
2023/04/20 03:14:48;;;;;;;23.40;3.70;;;;;;;9.58;100.00;99292.23;110303;1271;22917;-67
2023/04/20 03:17:18;;;;;;;22.40;3.30;;;;;;;9.61;100.00;99294.73;110191;1272;22405;-67
2023/04/20 03:19:47;;;;;;;22.40;3.30;;;;;;;9.60;100.00;99292.13;110031;1275;23209;-68
2023/04/20 03:22:18;;;;;;;19.70;3.40;;;;;;;9.60;100.00;99290.60;110201;1270;24105;-68
2023/04/20 03:24:47;;;;;;;25.20;3.80;;;;;;;9.59;100.00;99290.83;110176;1269;22334;-68
2023/04/20 03:27:31;;;;;;;18.30;3.50;;;;;;;9.58;100.00;99286.74;110224;1270;22417;-67
2023/04/20 03:30:10;;;;;;;18.50;3.50;;;;;;;9.56;100.00;99290.52;110249;1269;22380;-68
2023/04/20 03:32:39;;;;;;;25.10;3.30;;;;;;;9.57;100.00;99290.02;110315;1275;22208;-69
2023/04/20 03:35:07;;;;;;;24.30;3.80;;;;;;;9.63;100.00;99281.35;110180;1269;22391;-68
2023/04/20 03:37:37;;;;;;;15.00;3.50;;;;;;;9.64;100.00;99276.73;110306;1268;23186;-68
2023/04/20 03:40:07;;;;;;;21.40;3.60;;;;;;;9.64;100.00;99277.11;110190;1275;23323;-68
2023/04/20 03:42:36;;;;;;;23.30;4.40;;;;;;;9.65;100.00;99275.70;110221;1270;22377;-69
2023/04/20 03:45:05;;;;;;;24.90;3.60;;;;;;;9.66;100.00;99279.12;110346;1270;23204;-69
2023/04/20 03:47:34;;;;;;;20.60;3.70;;;;;;;9.74;100.00;99277.57;110299;1270;23378;-68
2023/04/20 03:50:03;;;;;;;17.60;3.10;;;;;;;9.76;100.00;99276.85;110286;1272;22223;-68
2023/04/20 03:52:32;;;;;;;19.80;3.60;;;;;;;9.75;100.00;99279.20;110329;1275;22307;-68
2023/04/20 03:55:03;;;;;;;18.10;4.10;;;;;;;9.75;100.00;99274.85;108749;1269;22524;-68
2023/04/20 03:57:32;;;;;;;26.30;4.30;;;;;;;9.78;100.00;99278.70;107712;1268;22546;-67
2023/04/20 04:00:01;;;;;;;23.10;4.00;;;;;;;9.89;100.00;99274.25;110201;1269;23180;-68
2023/04/20 04:02:45;;;;;;;22.60;3.90;;;;;;;9.93;100.00;99274.67;109634;1275;25000;-68
2023/04/20 04:05:17;;;;;;;23.20;4.00;;;;;;;9.94;100.00;99280.15;107059;1275;24388;-68
2023/04/20 04:07:45;;;;;;;22.90;4.00;;;;;;;9.97;100.00;99278.56;106406;1269;25406;-67
2023/04/20 04:10:14;;;;;;;20.40;4.80;;;;;;;9.97;100.00;99277.42;106682;1269;25354;-68
2023/04/20 04:12:44;;;;;;;16.10;3.70;;;;;;;9.95;100.00;99277.86;109364;1268;23873;-68
2023/04/20 04:15:12;;;;;;;19.90;4.20;;;;;;;9.94;100.00;99278.80;108102;1269;22520;-68
2023/04/20 04:17:49;;;;;;;21.00;3.90;;;;;;;9.97;100.00;99278.95;106335;1270;24375;-67
2023/04/20 04:20:17;;;;;;;20.30;3.00;;;;;;;10.00;100.00;99277.89;108060;1275;22939;-69
2023/04/20 04:22:46;;;;;;;24.00;4.20;;;;;;;9.99;100.00;99276.98;109782;1271;22528;-69
2023/04/20 04:25:47;;;;;;;20.90;4.10;;;;;;;9.99;100.00;99271.71;106509;1273;25378;-68
2023/04/20 04:28:18;;;;;;;19.40;3.80;;;;;;;9.97;100.00;99273.83;107780;1272;22541;-69
2023/04/20 04:31:08;;;;;;;20.00;3.80;;;;;;;9.97;100.00;99271.11;106793;1269;25418;-69
2023/04/20 04:33:37;;;;;;;19.40;4.30;;;;;;;9.96;100.00;99274.00;110278;1276;23221;-70
2023/04/20 04:36:05;;;;;;;22.30;4.00;;;;;;;9.98;100.00;99268.83;110217;1268;22393;-71
2023/04/20 04:38:34;;;;;;;19.00;3.30;;;;;;;10.00;100.00;99267.73;110220;1271;22328;-70
2023/04/20 04:41:02;;;;;;;24.80;3.50;;;;;;;10.02;100.00;99268.98;110263;1268;22450;-69
2023/04/20 04:43:32;;;;;;;22.30;3.50;;;;;;;10.06;100.00;99270.91;110255;1275;22442;-70
2023/04/20 04:46:10;;;;;;;24.10;3.80;;;;;;;10.10;100.00;99270.57;110178;1274;22506;-69
2023/04/20 04:48:41;;;;;;;22.30;3.90;;;;;;;10.15;100.00;99268.38;110253;1269;23025;-69
2023/04/20 04:51:09;;;;;;;22.10;4.10;;;;;;;10.20;100.00;99266.52;110243;1276;22873;-70
2023/04/20 04:53:37;;;;;;;25.30;3.70;;;;;;;10.24;100.00;99266.93;110341;1268;22196;-69
2023/04/20 04:56:06;;;;;;;19.20;3.70;;;;;;;10.28;100.00;99264.13;110324;1269;22426;-69
2023/04/20 04:58:34;;;;;;;16.20;3.50;;;;;;;10.32;100.00;99262.91;110345;1269;22368;-69
2023/04/20 05:01:03;;;;;;;15.30;3.50;;;;;;;10.36;100.00;99261.53;110296;1267;22215;-68
2023/04/20 05:03:31;;;;;;;23.10;3.30;;;;;;;10.39;100.00;99261.52;110314;1269;22398;-68
2023/04/20 05:05:59;;;;;;;18.70;3.70;;;;;;;10.42;100.00;99263.08;110307;1275;22414;-67
2023/04/20 05:08:27;;;;;;;21.80;3.70;;;;;;;10.43;100.00;99270.63;110301;1272;22318;-68
2023/04/20 05:10:56;;;;;;;19.10;4.20;;;;;;;10.44;100.00;99269.10;110251;1268;22432;-68
2023/04/20 05:13:24;;;;;;;22.00;3.50;;;;;;;10.47;100.00;99268.15;110311;1268;22406;-68
2023/04/20 05:15:52;;;;;;;18.50;3.70;;;;;;;10.47;100.00;99273.86;110272;1268;22402;-68
2023/04/20 05:18:22;;;;;;;16.60;3.10;;;;;;;10.47;100.00;99274.96;110300;1268;22302;-67
2023/04/20 05:20:50;;;;;;;21.90;3.40;;;;;;;10.47;100.00;99274.96;110246;1269;22298;-68
2023/04/20 05:23:19;;;;;;;18.20;3.10;;;;;;;10.46;100.00;99276.33;110184;1270;22338;-71
2023/04/20 05:25:47;;;;;;;17.00;3.20;;;;;;;10.44;100.00;99277.05;110257;1276;23112;-71
2023/04/20 05:28:16;;;;;;;23.00;3.90;;;;;;;10.38;100.00;99278.22;110293;1269;22408;-71
2023/04/20 05:30:44;;;;;;;17.70;3.40;;;;;;;10.37;100.00;99279.48;110318;1272;22704;-70
2023/04/20 05:33:13;;;;;;;24.20;4.20;;;;;;;10.40;100.00;99280.83;110314;1276;22462;-70
2023/04/20 05:35:41;;;;;;;20.50;4.10;;;;;;;10.39;100.00;99283.05;110335;1275;22722;-71
2023/04/20 05:38:09;;;;;;;21.60;3.80;;;;;;;10.40;100.00;99286.05;110293;1273;22397;-70
2023/04/20 05:40:38;;;;;;;24.80;4.60;;;;;;;10.44;100.00;99292.00;110279;1268;22273;-71
2023/04/20 05:43:06;;;;;;;29.00;3.90;;;;;;;10.46;100.00;99292.91;110323;1268;22155;-71
2023/04/20 05:45:34;;;;;;;22.10;3.70;;;;;;;10.48;100.00;99296.17;110343;1271;22215;-69
2023/04/20 05:48:03;;;;;;;19.90;3.90;;;;;;;10.48;100.00;99291.06;110166;1276;23079;-70
2023/04/20 05:50:31;;;;;;;23.40;4.10;;;;;;;10.48;100.00;99299.45;110282;1273;23022;-70
2023/04/20 05:52:59;;;;;;;25.70;4.20;;;;;;;10.54;100.00;99304.96;110323;1268;22346;-69
2023/04/20 05:55:27;;;;;;;25.00;3.80;;;;;;;10.53;100.00;99311.22;110323;1273;23234;-71
2023/04/20 05:57:56;;;;;;;22.90;4.20;;;;;;;10.50;100.00;99314.34;110317;1273;23170;-70
2023/04/20 06:00:25;;;;;;;27.10;3.80;;;;;;;10.41;100.00;99313.52;110309;1270;22203;-70
2023/04/20 06:02:54;;;;;;;20.50;3.70;;;;;;;10.31;100.00;99319.17;110335;1268;22226;-70
2023/04/20 06:05:22;;;;;;;22.40;3.90;;;;;;;10.25;100.00;99318.13;110338;1276;23458;-70
2023/04/20 06:07:51;;;;;;;27.30;4.00;;;;;;;10.17;100.00;99323.82;110298;1274;22968;-70
2023/04/20 06:10:20;;;;;;;20.40;4.50;;;;;;;10.16;100.00;99320.83;110311;1271;22292;-71
2023/04/20 06:12:48;;;;;;;19.80;4.20;;;;;;;10.10;100.00;99324.31;110364;1276;22766;-69
2023/04/20 06:15:17;;;;;;;22.60;3.70;;;;;;;10.06;100.00;99323.52;109941;1269;22350;-70
2023/04/20 06:17:45;;;;;;;25.90;3.90;;;;;;;9.98;100.00;99330.12;110312;1276;23177;-70
2023/04/20 06:20:13;;;;;;;23.30;3.60;;;;;;;9.91;100.00;99335.15;110336;1274;22999;-71
2023/04/20 06:22:44;;;;;;;18.90;3.60;;;;;;;9.91;100.00;99334.83;110283;1272;22335;-70
2023/04/20 06:25:12;;;;;;;19.50;3.70;;;;;;;9.88;100.00;99342.70;110233;1272;22366;-71
2023/04/20 06:27:42;;;;;;;19.30;3.80;;;;;;;9.83;100.00;99345.13;110319;1268;22232;-70
2023/04/20 06:30:10;;;;;;;21.30;3.60;;;;;;;9.83;100.00;99350.34;110331;1269;22987;-70
2023/04/20 06:32:39;;;;;;;27.00;4.10;;;;;;;9.76;100.00;99355.96;110268;1268;22483;-70
2023/04/20 06:35:08;;;;;;;23.60;3.80;;;;;;;9.69;100.00;99353.91;110217;1268;22790;-70
2023/04/20 06:37:37;;;;;;;23.40;4.20;;;;;;;9.64;100.00;99357.29;110257;1276;22279;-71
2023/04/20 06:40:09;;;;;;;22.60;4.00;;;;;;;9.58;100.00;99360.06;110343;1269;22517;-71
2023/04/20 06:42:38;;;;;;;21.90;3.60;;;;;;;9.53;100.00;99359.59;110330;1275;22314;-70
2023/04/20 06:45:07;;;;;;;21.60;3.70;;;;;;;9.43;100.00;99365.79;110310;1269;22432;-70
2023/04/20 06:47:35;;;;;;;25.90;4.00;;;;;;;9.39;100.00;99371.83;110383;1276;22404;-70
2023/04/20 06:50:08;;;;;;;27.20;4.40;;;;;;;9.41;100.00;99372.38;110216;1269;23316;-70
2023/04/20 06:55:33;;;;;;;18.00;4.40;;;;;;;9.55;100.00;99372.52;104929;1306;557593;-67
2023/04/20 06:58:00;;;;;;;25.40;4.10;;;;;;;9.71;100.00;99367.77;107012;1288;24277;-67
2023/04/20 07:00:28;;;;;;;21.10;4.70;;;;;;;9.86;100.00;99371.80;106919;1283;25456;-65
2023/04/20 07:02:55;;;;;;;20.70;4.10;;;;;;;9.99;100.00;99374.33;106753;1283;22650;-67
2023/04/20 07:05:22;;;;;;;25.50;4.80;;;;;;;10.10;100.00;99366.68;106651;1283;24388;-67
2023/04/20 07:07:50;;;;;;;21.00;5.00;;;;;;;10.18;100.00;99357.04;106574;1283;239441;-67
2023/04/20 07:10:16;;;;;;;25.60;5.40;;;;;;;10.36;100.00;99351.59;106921;1279;22600;-67
2023/04/20 07:12:45;;;;;;;22.60;4.60;;;;;;;10.54;100.00;99346.27;106928;1273;24269;-66
2023/04/20 07:15:13;;;;;;;31.90;5.90;;;;;;;10.77;100.00;99334.96;107013;1279;22790;-66
2023/04/20 07:17:40;;;;;;;17.80;4.90;;;;;;;10.83;100.00;99329.09;106832;1279;25468;-65
2023/04/20 07:20:08;;;;;;;20.20;4.70;;;;;;;10.89;100.00;99327.26;106730;1279;23810;-65
2023/04/20 07:22:35;;;;;;;17.20;3.80;;;;;;;10.96;100.00;99318.27;109689;1279;22357;-67
2023/04/20 07:25:03;;;;;;;25.30;4.60;;;;;;;10.94;100.00;99318.02;109664;1279;22372;-67
2023/04/20 07:27:36;;;;;;;29.20;4.40;;;;;;;11.01;100.00;99312.69;109668;1279;22557;-66
2023/04/20 07:30:05;;;;;;;25.30;4.30;;;;;;;11.07;100.00;99313.61;109537;1269;25349;-66
2023/04/20 07:32:33;;;;;;;26.60;4.20;;;;;;;11.23;100.00;99308.79;107748;1267;22540;-65
2023/04/20 07:35:00;;;;;;;27.20;4.50;;;;;;;11.23;100.00;99303.77;107690;1267;23123;-66
2023/04/20 07:37:26;;;;;;;27.20;4.40;;;;;;;11.23;100.00;99304.42;107604;1270;22676;-66
2023/04/20 07:39:53;;;;;;;24.70;4.40;;;;;;;11.19;100.00;99303.81;107603;1267;22526;-66
2023/04/20 07:42:20;;;;;;;27.10;4.40;;;;;;;11.15;100.00;99301.95;107728;1271;23382;-66
2023/04/20 07:44:48;;;;;;;24.40;4.50;;;;;;;11.01;100.00;99302.33;107904;1267;23401;-66
2023/04/20 07:47:15;;;;;;;25.40;4.60;;;;;;;10.91;100.00;99304.15;107866;1269;24405;-66
2023/04/20 07:49:42;;;;;;;21.80;4.30;;;;;;;10.89;100.00;99306.95;107777;1274;25868;-67
2023/04/20 07:52:09;;;;;;;30.90;5.10;;;;;;;10.77;100.00;99304.91;107822;1267;25111;-67
2023/04/20 07:54:44;;;;;;;24.20;4.70;;;;;;;10.77;100.00;99305.67;107718;1270;25414;-67
2023/04/20 07:57:11;;;;;;;21.50;4.40;;;;;;;10.76;100.00;99305.73;110417;1272;22360;-68
2023/04/20 07:59:39;;;;;;;17.80;3.70;;;;;;;10.77;100.00;99307.09;110455;1270;22266;-67
2023/04/20 08:02:06;;;;;;;25.10;4.20;;;;;;;10.74;100.00;99306.84;110401;1270;22277;-67
2023/04/20 08:04:35;;;;;;;23.10;4.40;;;;;;;10.78;100.00;99307.02;110410;1272;22290;-68
2023/04/20 08:07:03;;;;;;;23.90;5.10;;;;;;;10.81;100.00;99302.33;110406;1269;22226;-68
2023/04/20 08:09:29;;;;;;;22.40;4.10;;;;;;;10.77;100.00;99301.42;110404;1274;22460;-68
2023/04/20 08:11:56;;;;;;;23.40;4.40;;;;;;;10.74;100.00;99299.66;110398;1272;22202;-68
2023/04/20 08:14:24;;;;;;;26.00;4.40;;;;;;;10.69;100.00;99304.38;110418;1270;22238;-68
2023/04/20 08:16:50;;;;;;;24.60;4.20;;;;;;;10.68;100.00;99302.52;110407;1270;22466;-68
2023/04/20 08:19:19;;;;;;;30.60;3.80;;;;;;;10.64;100.00;99299.29;110398;1267;22229;-67
2023/04/20 08:21:46;;;;;;;25.00;4.70;;;;;;;10.61;100.00;99305.51;110421;1269;23048;-67
2023/04/20 08:24:13;;;;;;;24.80;3.40;;;;;;;10.57;100.00;99304.17;110396;1269;23234;-68
2023/04/20 08:26:39;;;;;;;21.70;4.00;;;;;;;10.50;100.00;99301.98;110424;1269;22360;-67
2023/04/20 08:29:06;;;;;;;22.50;4.20;;;;;;;10.43;100.00;99302.03;110361;1269;23243;-67
2023/04/20 08:31:33;;;;;;;19.40;3.30;;;;;;;10.42;100.00;99300.89;110382;1267;22784;-68
2023/04/20 08:34:00;;;;;;;25.00;4.00;;;;;;;10.47;100.00;99303.33;110403;1267;22357;-67
2023/04/20 08:36:27;;;;;;;31.90;4.20;;;;;;;10.47;100.00;99302.45;110419;1273;22300;-67
2023/04/20 08:38:57;;;;;;;25.50;4.60;;;;;;;10.54;100.00;99302.02;107623;1251;22546;-68
2023/04/20 08:41:25;;;;;;;27.90;4.30;;;;;;;10.54;100.00;99301.31;107661;1275;24054;-67
2023/04/20 08:43:52;;;;;;;21.00;4.20;;;;;;;10.56;100.00;99300.36;107690;1267;23833;-67
2023/04/20 08:46:18;;;;;;;26.70;4.30;;;;;;;10.53;100.00;99305.39;107529;1269;22927;-66
2023/04/20 08:48:47;;;;;;;19.60;3.80;;;;;;;10.52;100.00;99299.59;107657;1275;24190;-67
2023/04/20 08:51:15;;;;;;;21.60;3.90;;;;;;;10.45;100.00;99307.77;107650;1275;22600;-66
2023/04/20 08:53:42;;;;;;;27.10;5.40;;;;;;;10.46;100.00;99308.64;107463;1257;22521;-67
2023/04/20 08:56:10;;;;;;;25.80;4.00;;;;;;;10.44;100.00;99308.73;107476;1269;24560;-67
2023/04/20 08:58:41;;;;;;;22.80;4.50;;;;;;;10.41;100.00;99309.40;107450;1275;25455;-67
2023/04/20 09:01:11;;;;;;;23.10;4.20;;;;;;;10.36;100.00;99312.14;107455;1269;24200;-66
2023/04/20 09:03:41;;;;;;;22.70;4.30;;;;;;;10.32;100.00;99318.13;107413;1273;23312;-67
2023/04/20 09:06:16;;;;;;;30.10;4.80;;;;;;;10.32;100.00;99313.41;108281;1270;24023;-66
2023/04/20 09:08:44;;;;;;;23.10;4.30;;;;;;;10.28;100.00;99314.45;107635;1275;22556;-66
2023/04/20 09:11:24;;;;;;;24.40;4.60;;;;;;;10.25;100.00;99320.67;107275;1275;23055;-67
2023/04/20 09:14:05;;;;;;;19.70;3.40;;;;;;;10.19;100.00;99327.61;107319;1267;27829;-67
2023/04/20 09:16:33;;;;;;;20.20;3.60;;;;;;;10.09;100.00;99326.38;107582;1275;25776;-67
2023/04/20 09:19:00;;;;;;;20.80;4.20;;;;;;;9.99;100.00;99340.23;107433;1275;23423;-66
2023/04/20 09:21:27;;;;;;;21.40;3.80;;;;;;;9.94;100.00;99337.48;107387;1275;22543;-67
2023/04/20 09:23:58;;;;;;;24.10;3.80;;;;;;;9.91;100.00;99343.91;107453;1273;23344;-67
2023/04/20 09:26:26;;;;;;;26.70;5.20;;;;;;;9.85;100.00;99348.10;107632;1273;25499;-66
2023/04/20 09:28:53;;;;;;;22.00;4.20;;;;;;;9.79;100.00;99347.41;108312;1267;22544;-67
2023/04/20 09:31:20;;;;;;;21.40;3.70;;;;;;;9.70;100.00;99357.32;107568;1269;22566;-67
2023/04/20 09:34:01;;;;;;;27.00;4.70;;;;;;;9.63;100.00;99358.71;107576;1268;24425;-68
2023/04/20 09:36:36;;;;;;;17.70;3.60;;;;;;;9.47;100.00;99364.16;107645;1267;22764;-67
2023/04/20 09:39:11;;;;;;;21.70;3.80;;;;;;;9.32;100.00;99370.80;107407;1275;22547;-68
2023/04/20 09:41:39;;;;;;;20.00;4.00;;;;;;;9.23;100.00;99376.27;107665;1274;25344;-68
2023/04/20 09:44:07;;;;;;;26.10;4.00;;;;;;;9.19;100.00;99380.52;107693;1267;22535;-68
2023/04/20 09:46:36;;;;;;;17.20;3.60;;;;;;;9.15;100.00;99381.17;107701;1274;25419;-68
2023/04/20 09:49:04;;;;;;;21.00;4.30;;;;;;;9.15;100.00;99392.73;107619;1270;25510;-68
2023/04/20 09:51:37;;;;;;;20.20;4.10;;;;;;;9.13;100.00;99393.99;107667;1269;25199;-67
2023/04/20 09:54:05;;;;;;;29.90;4.10;;;;;;;9.11;100.00;99394.58;110162;1267;23149;-68
2023/04/20 09:56:33;;;;;;;25.20;4.40;;;;;;;9.09;100.00;99399.85;110381;1269;22764;-67
2023/04/20 09:59:00;;;;;;;24.20;4.60;;;;;;;9.07;100.00;99399.61;109430;1267;22599;-68
2023/04/20 10:01:32;;;;;;;28.10;4.10;;;;;;;9.06;100.00;99404.52;107640;1267;26480;-67
2023/04/20 10:03:59;;;;;;;22.30;3.80;;;;;;;9.05;100.00;99403.91;110404;1272;23207;-68
2023/04/20 10:06:32;;;;;;;20.00;4.40;;;;;;;9.05;100.00;99407.88;107944;1275;24212;-68
2023/04/20 10:09:03;;;;;;;27.80;4.80;;;;;;;8.98;100.00;99412.48;107694;1267;23329;-67
2023/04/20 10:11:35;;;;;;;20.50;3.70;;;;;;;8.94;100.00;99413.13;107730;1273;22676;-67
2023/04/20 10:14:22;;;;;;;23.40;3.90;;;;;;;8.94;100.00;99419.77;107598;1274;25492;-67
2023/04/20 10:16:59;;;;;;;25.60;4.50;;;;;;;8.96;100.00;99423.14;107507;1275;22620;-67
2023/04/20 10:19:39;;;;;;;;;;;;;;;8.98;100.00;99425.84;107526;1273;24329;-67
2023/04/20 10:22:06;;;;;;;21.90;3.30;;;;;;;8.95;100.00;99422.58;107484;1272;24480;-67
2023/04/20 10:24:34;;;;;;;25.10;4.20;;;;;;;8.94;100.00;99427.99;107572;1275;22531;-67
2023/04/20 10:27:03;;;;;;;27.40;4.30;;;;;;;9.00;100.00;99435.78;107529;1275;23285;-66
2023/04/20 10:29:30;;;;;;;20.50;3.70;;;;;;;9.06;100.00;99432.21;108121;1275;25440;-66
2023/04/20 10:31:57;;;;;;;20.70;3.20;;;;;;;9.12;100.00;99432.39;107578;1269;22667;-66
2023/04/20 10:34:34;;;;;;;18.70;4.00;;;;;;;9.18;100.00;99436.58;107521;1272;22597;-66
2023/04/20 10:37:09;;;;;;;19.90;3.70;;;;;;;9.23;100.00;99438.36;107526;1273;24194;-66
2023/04/20 10:39:39;;;;;;;16.00;3.30;;;;;;;9.32;100.00;99434.69;107568;1271;22519;-66
2023/04/20 10:42:05;;;;;;;20.40;3.60;;;;;;;9.41;100.00;99443.23;107440;1273;22522;-66
2023/04/20 10:44:34;;;;;;;16.40;3.30;;;;;;;9.50;100.00;99440.13;107612;1270;23388;-66
2023/04/20 10:47:01;;;;;;;22.90;3.60;;;;;;;9.65;100.00;99440.50;107438;1275;24240;-67
2023/04/20 10:49:28;;;;;;;28.20;4.00;;;;;;;9.78;100.00;99440.11;107513;1270;26481;-67
2023/04/20 10:51:55;;;;;;;22.30;3.60;;;;;;;9.92;100.00;99441.34;109906;1269;22255;-67
2023/04/20 10:54:31;;;;;;;20.20;3.70;;;;;;;10.02;100.00;99439.04;110331;1269;22377;-66
2023/04/20 10:57:02;;;;;;;21.70;3.80;;;;;;;10.12;100.00;99435.55;110382;1268;23065;-68
2023/04/20 10:59:29;;;;;;;24.10;3.90;;;;;;;10.19;100.00;99434.45;110361;1267;22346;-67
2023/04/20 11:02:00;;;;;;;21.70;3.50;;;;;;;10.17;100.00;99426.58;110426;1275;22298;-67
2023/04/20 11:04:35;;;;;;;21.60;4.00;;;;;;;10.08;100.00;99423.30;110428;1273;23345;-69
2023/04/20 11:07:06;;;;;;;21.10;3.50;;;;;;;10.06;100.00;99416.83;110404;1267;22293;-67
2023/04/20 11:09:33;;;;;;;17.20;3.50;;;;;;;10.00;100.00;99414.08;110430;1267;23607;-67
2023/04/20 11:12:05;;;;;;;18.20;3.60;;;;;;;10.02;100.00;99414.52;110396;1273;22455;-67
2023/04/20 11:14:36;;;;;;;18.30;3.50;;;;;;;10.07;100.00;99418.64;110417;1269;23566;-67
2023/04/20 11:17:04;;;;;;;22.30;4.10;;;;;;;10.09;100.00;99421.67;110469;1275;22379;-67
2023/04/20 11:19:33;;;;;;;22.50;3.80;;;;;;;10.19;100.00;99424.45;110372;1273;22237;-66
2023/04/20 11:22:00;;;;;;;20.40;3.30;;;;;;;10.21;100.00;99421.62;110425;1275;22429;-66
2023/04/20 11:24:31;;;;;;;20.50;3.90;;;;;;;10.25;100.00;99425.52;110396;1273;22283;-66
2023/04/20 11:26:58;;;;;;;17.80;3.40;;;;;;;10.29;100.00;99423.66;110521;1273;23108;-67